createdAt,value
2022-11-28T00:00:02.010Z,104249.31
2022-11-28T00:05:15.252Z,104258.53
2022-11-28T00:10:18.057Z,104283.13
2022-11-28T00:15:20.826Z,104267.88
2022-11-28T00:20:23.684Z,104252.13
2022-11-28T00:25:26.522Z,104277.72
2022-11-28T00:30:29.163Z,104281.56
2022-11-28T00:35:31.863Z,104271.41
2022-11-28T00:40:34.529Z,104259.97
2022-11-28T00:45:37.376Z,104265.63
2022-11-28T00:50:40.114Z,104251.09
2022-11-28T00:55:42.745Z,104272.50
2022-11-28T01:00:45.503Z,104272.50
2022-11-28T01:05:48.224Z,104280.66
2022-11-28T01:10:50.868Z,104279.16
2022-11-28T01:15:53.761Z,104291.91
2022-11-28T01:20:56.525Z,104289.91
2022-11-28T01:25:59.343Z,104281.41
2022-11-28T01:31:10.045Z,104297.22
2022-11-28T01:36:14.026Z,104277.72
2022-11-28T01:41:19.069Z,104292.38
2022-11-28T01:46:21.981Z,104308.50
2022-11-28T01:51:25.109Z,104295.22
2022-11-28T01:56:30.686Z,104309.34
2022-11-28T02:01:33.424Z,104306.72
2022-11-28T02:06:36.620Z,104307.66
2022-11-28T02:11:59.877Z,104301.88
2022-11-28T02:17:27.167Z,104314.44
2022-11-28T02:22:37.352Z,104295.88
2022-11-28T02:28:08.129Z,104314.00
2022-11-28T02:33:15.429Z,104305.81
2022-11-28T02:38:48.594Z,104314.63
2022-11-28T02:44:17.445Z,104287.50
2022-11-28T02:49:47.828Z,104308.78
2022-11-28T02:54:51.737Z,104301.16
2022-11-28T02:59:55.867Z,104320.19
2022-11-28T03:05:14.518Z,104315.53
2022-11-28T03:10:23.946Z,104318.75
2022-11-28T03:15:33.254Z,104309.72
2022-11-28T03:20:57.864Z,104316.69
2022-11-28T03:26:06.220Z,104311.03
2022-11-28T03:31:15.885Z,104294.78
2022-11-28T03:36:28.174Z,104279.47
2022-11-28T03:41:45.053Z,104321.41
2022-11-28T03:46:49.364Z,104335.41
2022-11-28T03:52:13.738Z,104334.75
2022-11-28T03:57:31.412Z,104329.50
2022-11-28T04:02:57.171Z,104329.81
2022-11-28T04:08:16.271Z,104336.38
2022-11-28T04:13:32.643Z,104347.25
2022-11-28T04:18:57.013Z,104327.34
2022-11-28T04:24:04.028Z,104321.47
2022-11-28T04:29:10.639Z,104316.81
2022-11-28T04:34:16.649Z,104338.88
2022-11-28T04:39:22.211Z,104292.41
2022-11-28T04:44:27.964Z,104335.44
2022-11-28T04:49:31.149Z,104330.81
2022-11-28T04:54:33.757Z,104335.56
2022-11-28T04:59:36.610Z,104328.31
2022-11-28T05:04:39.555Z,104314.03
2022-11-28T05:09:42.289Z,104323.81
2022-11-28T05:14:45.048Z,104323.88
2022-11-28T05:19:47.781Z,104325.22
2022-11-28T05:24:50.582Z,104328.94
2022-11-28T05:29:54.233Z,104325.91
2022-11-28T05:34:56.966Z,104325.34
2022-11-28T05:39:59.752Z,104323.59
2022-11-28T05:45:02.680Z,104321.22
2022-11-28T05:50:06.852Z,104325.88
2022-11-28T05:55:09.899Z,104323.19
2022-11-28T06:00:14.748Z,104333.25
2022-11-28T06:05:41.054Z,104323.78
2022-11-28T06:10:40.590Z,104334.13
2022-11-28T06:15:45.163Z,104318.25
2022-11-28T06:20:47.898Z,104325.34
2022-11-28T06:25:50.652Z,104325.41
2022-11-28T06:30:53.290Z,104328.16
2022-11-28T06:36:01.344Z,104337.34
2022-11-28T06:41:10.028Z,104341.28
2022-11-28T06:46:19.357Z,104338.84
2022-11-28T06:51:22.907Z,104333.66
2022-11-28T06:56:25.884Z,104350.41
2022-11-28T07:01:31.202Z,104340.28
2022-11-28T07:06:34.555Z,104357.69
2022-11-28T07:11:37.266Z,104342.25
2022-11-28T07:16:40.027Z,104342.31
2022-11-28T07:21:42.863Z,104343.56
2022-11-28T07:26:47.311Z,104348.44
2022-11-28T07:31:50.020Z,104348.41
2022-11-28T07:36:52.717Z,104341.44
2022-11-28T07:41:55.531Z,104330.44
2022-11-28T07:46:58.360Z,104308.75
2022-11-28T07:52:01.687Z,104350.56
2022-11-28T07:57:12.350Z,104337.75
2022-11-28T08:02:16.143Z,104337.44
2022-11-28T08:07:20.065Z,104291.03
2022-11-28T08:12:22.821Z,104336.22
2022-11-28T08:17:25.544Z,104330.13
2022-11-28T08:22:28.720Z,104333.78
2022-11-28T08:27:32.649Z,104331.97
2022-11-28T08:32:35.641Z,104336.22
2022-11-28T08:37:38.380Z,104334.91
2022-11-28T08:42:41.446Z,104339.69
2022-11-28T08:47:44.277Z,104351.22
2022-11-28T08:52:46.939Z,104343.81
2022-11-28T08:57:49.612Z,104363.81
2022-11-28T09:02:52.232Z,104353.00
2022-11-28T09:07:55.597Z,104345.91
2022-11-28T09:12:58.351Z,104359.00
2022-11-28T09:18:01.316Z,104364.41
2022-11-28T09:23:03.996Z,104340.88
2022-11-28T09:28:07.710Z,104356.31
2022-11-28T09:33:10.380Z,104361.28
2022-11-28T09:38:13.053Z,104366.75
2022-11-28T09:43:27.392Z,104357.56
2022-11-28T09:48:45.211Z,104306.03
2022-11-28T09:54:16.511Z,104378.59
2022-11-28T09:59:29.361Z,104378.13
2022-11-28T10:05:03.111Z,104389.13
2022-11-28T10:10:24.854Z,104384.91
2022-11-28T10:15:39.063Z,104385.94
2022-11-28T10:20:46.699Z,104378.44
2022-11-28T10:26:07.008Z,104384.75
2022-11-28T10:31:16.961Z,104383.50
2022-11-28T10:36:34.034Z,104388.91
2022-11-28T10:42:26.243Z,104379.44
2022-11-28T10:47:45.062Z,104382.03
2022-11-28T10:53:02.023Z,104385.75
2022-11-28T10:58:44.017Z,104386.22
2022-11-28T11:03:47.027Z,104388.56
2022-11-28T11:08:49.753Z,104390.19
2022-11-28T11:14:08.774Z,104384.97
2022-11-28T11:19:27.571Z,104388.78
2022-11-28T11:24:30.642Z,104393.34
2022-11-28T11:29:36.313Z,104403.41
2022-11-28T11:34:46.203Z,104373.19
2022-11-28T11:39:51.593Z,104381.41
2022-11-28T11:44:54.935Z,104364.22
2022-11-28T11:50:04.786Z,104339.09
2022-11-28T11:55:16.962Z,104374.75
2022-11-28T12:00:21.842Z,104338.44
2022-11-28T12:05:59.013Z,104385.06
2022-11-28T12:11:18.446Z,104377.00
2022-11-28T12:16:45.332Z,104387.09
2022-11-28T12:21:48.291Z,104389.94
2022-11-28T12:26:54.018Z,104394.97
2022-11-28T12:32:10.663Z,104385.13
2022-11-28T12:37:48.311Z,104386.44
2022-11-28T12:43:29.429Z,104386.16
2022-11-28T12:48:38.916Z,104379.13
2022-11-28T12:53:46.892Z,104356.97
2022-11-28T12:59:00.000Z,104380.03
2022-11-28T13:04:20.680Z,104379.06
2022-11-28T13:09:37.277Z,104376.13
2022-11-28T13:14:49.207Z,104377.63
2022-11-28T13:20:15.251Z,104372.38
2022-11-28T13:25:47.900Z,104364.78
2022-11-28T13:30:57.841Z,104365.69
2022-11-28T13:36:01.848Z,104370.19
2022-11-28T13:41:35.327Z,104368.72
2022-11-28T13:46:35.015Z,104356.44
2022-11-28T13:51:38.222Z,104365.16
2022-11-28T13:56:41.019Z,104362.75
2022-11-28T14:01:48.655Z,104368.84
2022-11-28T14:07:00.361Z,104350.59
2022-11-28T14:12:18.616Z,104364.94
2022-11-28T14:17:45.551Z,104358.75
2022-11-28T14:23:14.032Z,104361.34
2022-11-28T14:28:28.330Z,104355.19
2022-11-28T14:33:40.375Z,104366.19
2022-11-28T14:38:44.986Z,104339.50
2022-11-28T14:43:49.284Z,104362.59
2022-11-28T14:49:01.057Z,104367.72
2022-11-28T14:54:04.147Z,104354.59
2022-11-28T14:59:11.033Z,104375.13
2022-11-28T15:04:35.734Z,104369.88
2022-11-28T15:09:47.825Z,104367.59
2022-11-28T15:14:52.591Z,104365.84
2022-11-28T15:19:56.304Z,104356.72
2022-11-28T15:24:59.550Z,104320.72
2022-11-28T15:30:03.916Z,104352.84
2022-11-28T15:35:12.821Z,104351.13
2022-11-28T15:40:26.241Z,104363.16
2022-11-28T15:45:31.661Z,104363.59
2022-11-28T15:50:34.889Z,104352.13
2022-11-28T15:55:37.612Z,104337.69
2022-11-28T16:00:42.348Z,104338.28
2022-11-28T16:05:46.295Z,104271.66
2022-11-28T16:10:49.141Z,104329.50
2022-11-28T16:15:53.260Z,104340.81
2022-11-28T16:20:57.752Z,104332.00
2022-11-28T16:26:08.691Z,104325.19
2022-11-28T16:31:19.855Z,104325.19
2022-11-28T16:36:37.601Z,104311.47
2022-11-28T16:41:52.270Z,104327.00
2022-11-28T16:46:57.591Z,104305.34
2022-11-28T16:52:34.114Z,104313.06
2022-11-28T16:57:47.261Z,104298.06
2022-11-28T17:02:53.468Z,104310.03
2022-11-28T17:07:56.426Z,104303.28
2022-11-28T17:12:59.152Z,104302.22
2022-11-28T17:18:01.826Z,104312.19
2022-11-28T17:23:04.951Z,104302.34
2022-11-28T17:28:09.680Z,104301.16
2022-11-28T17:33:16.438Z,104245.28
2022-11-28T17:38:20.461Z,104299.75
2022-11-28T17:43:23.228Z,104290.13
2022-11-28T17:48:25.914Z,104296.72
2022-11-28T17:53:28.583Z,104293.03
2022-11-28T17:58:31.504Z,104301.47
2022-11-28T18:03:34.151Z,104252.69
2022-11-28T18:08:36.824Z,104287.41
2022-11-28T18:13:42.698Z,104287.50
2022-11-28T18:18:45.936Z,104280.66
2022-11-28T18:23:50.944Z,104279.91
2022-11-28T18:28:54.671Z,104259.53
2022-11-28T18:34:02.614Z,104270.88
2022-11-28T18:39:11.941Z,104269.81
2022-11-28T18:44:14.707Z,104271.97
2022-11-28T18:49:19.453Z,104279.56
2022-11-28T18:54:23.702Z,104276.56
2022-11-28T18:59:26.572Z,104270.00
2022-11-28T19:04:29.263Z,104271.34
2022-11-28T19:09:32.136Z,104262.81
2022-11-28T19:14:34.870Z,104266.84
2022-11-28T19:19:40.182Z,104255.38
2022-11-28T19:24:42.779Z,104269.72
2022-11-28T19:29:45.821Z,104267.72
2022-11-28T19:34:52.666Z,104261.13
2022-11-28T19:39:59.706Z,104259.47
2022-11-28T19:45:06.218Z,104217.34
2022-11-28T19:50:10.561Z,104234.59
2022-11-28T19:55:13.274Z,104248.56
2022-11-28T20:00:16.618Z,104237.75
2022-11-28T20:05:22.632Z,104233.16
2022-11-28T20:10:25.986Z,104236.63
2022-11-28T20:15:28.971Z,104232.97
2022-11-28T20:20:31.733Z,104221.47
2022-11-28T20:25:34.623Z,104225.22
2022-11-28T20:30:38.419Z,104210.81
2022-11-28T20:35:41.085Z,104216.34
2022-11-28T20:40:43.993Z,104224.25
2022-11-28T20:45:46.747Z,104225.06
2022-11-28T20:50:49.437Z,104227.97
2022-11-28T20:56:05.128Z,104233.97
2022-11-28T21:01:08.321Z,104223.03
2022-11-28T21:06:11.594Z,104209.50
2022-11-28T21:11:36.919Z,104216.44
2022-11-28T21:16:42.486Z,104206.28
2022-11-28T21:21:45.228Z,104206.28
2022-11-28T21:26:52.900Z,104202.59
2022-11-28T21:31:56.519Z,104170.69
2022-11-28T21:36:59.220Z,104205.13
2022-11-28T21:42:02.728Z,104189.03
2022-11-28T21:47:05.926Z,104178.13
2022-11-28T21:52:09.825Z,104183.06
2022-11-28T21:57:12.457Z,104196.81
2022-11-28T22:02:15.884Z,104188.78
2022-11-28T22:07:18.761Z,104185.03
2022-11-28T22:12:22.074Z,104167.00
2022-11-28T22:17:25.545Z,104165.59
2022-11-28T22:22:29.016Z,104170.69
2022-11-28T22:27:32.742Z,104154.28
2022-11-28T22:32:35.668Z,104160.44
2022-11-28T22:37:38.757Z,104161.53
2022-11-28T22:42:41.436Z,104147.84
2022-11-28T22:47:44.186Z,104161.63
2022-11-28T22:52:46.887Z,104166.03
2022-11-28T22:57:49.581Z,104156.09
2022-11-28T23:02:52.321Z,104154.31
2022-11-28T23:07:55.599Z,104150.97
2022-11-28T23:12:58.471Z,104148.56
2022-11-28T23:18:01.592Z,104147.19
2022-11-28T23:23:04.474Z,104106.47
2022-11-28T23:28:07.693Z,104160.53
2022-11-28T23:33:10.387Z,104144.94
2022-11-28T23:38:13.240Z,104151.84
2022-11-28T23:43:15.905Z,104154.56
2022-11-28T23:48:18.890Z,104150.44
2022-11-28T23:53:21.825Z,104154.66
2022-11-28T23:58:24.559Z,104155.19
